Fairport, Missouri
Current Conditions -  °F | °C
As of 3:53 PM on Wednesday 26 Nov 2014 (Local Time) from KSTJ Reporting Station
Overcast Overcast  
Wind Chill: 19°   Ceiling: 1700
Heat Index: 32°   Visibility: 10mi
Dew Point: 26°   Wind: 25mph
Humidity: 79%   Direction: 320°NW
Pressure: 30.17"   Gusts: 32mph
Location:  39.99°N, 94.35°W
Report Text: KSTJ 262153Z AUTO 32022G28KT 10SM OVC017 00/M03 A3017 RMK AO2 PK WND 33033/2136 SLP223 T00001033
Loading
Personal Weather Stations






























Interactive Weather Map New forecast layout! Learn more

10-Day Weather Forecast

Advertisements
Track Severe Weather on mobile